createdAt,value
2022-09-26T00:00:32.326Z,14.31
2022-09-26T00:01:37.981Z,14.32
2022-09-26T00:02:39.758Z,14.33
2022-09-26T00:03:44.619Z,14.34
2022-09-26T00:04:46.344Z,14.34
2022-09-26T00:05:48.942Z,14.36
2022-09-26T00:06:51.778Z,14.36
2022-09-26T00:07:54.297Z,14.38
2022-09-26T00:08:56.664Z,14.39
2022-09-26T00:09:59.188Z,14.39
2022-09-26T00:11:03.307Z,14.40
2022-09-26T00:12:07.567Z,14.41
2022-09-26T00:13:10.462Z,14.41
2022-09-26T00:14:16.641Z,14.41
2022-09-26T00:15:18.182Z,14.40
2022-09-26T00:16:21.208Z,14.39
2022-09-26T00:17:23.916Z,14.37
2022-09-26T00:18:25.743Z,14.38
2022-09-26T00:19:28.271Z,14.37
2022-09-26T00:20:29.986Z,14.38
2022-09-26T00:21:32.798Z,14.37
2022-09-26T00:22:34.389Z,14.36
2022-09-26T00:23:37.237Z,14.37
2022-09-26T00:24:38.792Z,14.38
2022-09-26T00:25:46.311Z,14.40
2022-09-26T00:26:47.915Z,14.41
2022-09-26T00:27:50.393Z,14.41
2022-09-26T00:28:54.173Z,14.41
2022-09-26T00:29:57.353Z,14.43
2022-09-26T00:31:03.487Z,14.44
2022-09-26T00:32:06.836Z,14.45
2022-09-26T00:33:08.494Z,14.45
2022-09-26T00:34:12.780Z,14.46
2022-09-26T00:35:14.490Z,14.48
2022-09-26T00:36:17.352Z,14.49
2022-09-26T00:37:19.865Z,14.50
2022-09-26T00:38:21.911Z,14.49
2022-09-26T00:39:24.978Z,14.50
2022-09-26T00:40:27.878Z,14.49
2022-09-26T00:41:30.531Z,14.49
2022-09-26T00:42:32.065Z,14.48
2022-09-26T00:43:36.621Z,14.47
2022-09-26T00:44:45.063Z,14.46
2022-09-26T00:45:47.885Z,14.44
2022-09-26T00:46:49.487Z,14.44
2022-09-26T00:47:58.030Z,14.43
2022-09-26T00:49:07.164Z,14.40
2022-09-26T00:50:17.768Z,14.38
2022-09-26T00:51:19.416Z,14.37
2022-09-26T00:52:25.875Z,14.35
2022-09-26T00:53:33.360Z,14.34
2022-09-26T00:54:39.745Z,14.34
2022-09-26T00:55:48.587Z,14.33
2022-09-26T00:56:55.903Z,14.32
2022-09-26T00:58:05.344Z,14.31
2022-09-26T00:59:13.413Z,14.32
2022-09-26T01:00:20.322Z,14.32
2022-09-26T01:01:29.328Z,14.31
2022-09-26T01:02:36.118Z,14.31
2022-09-26T01:03:42.672Z,14.30
2022-09-26T01:04:48.796Z,14.28
2022-09-26T01:05:51.568Z,14.28
2022-09-26T01:07:00.202Z,14.27
2022-09-26T01:08:04.872Z,14.28
2022-09-26T01:09:09.930Z,14.27
2022-09-26T01:10:16.323Z,14.26
2022-09-26T01:11:20.300Z,14.26
2022-09-26T01:12:22.347Z,14.26
2022-09-26T01:13:26.718Z,14.26
2022-09-26T01:14:28.551Z,14.26
2022-09-26T01:15:36.285Z,14.26
2022-09-26T01:16:44.726Z,14.25
2022-09-26T01:17:52.098Z,14.25
2022-09-26T01:18:54.730Z,14.25
2022-09-26T01:20:11.002Z,14.25
2022-09-26T01:21:33.667Z,14.25
2022-09-26T01:23:13.130Z,14.25
2022-09-26T01:24:48.207Z,14.23
2022-09-26T01:26:18.646Z,14.22
2022-09-26T01:27:42.129Z,14.22
2022-09-26T01:29:19.500Z,14.22
2022-09-26T01:30:26.314Z,14.23
2022-09-26T01:31:38.133Z,14.22
2022-09-26T01:33:02.356Z,14.22
2022-09-26T01:34:13.564Z,14.22
2022-09-26T01:35:25.842Z,14.22
2022-09-26T01:36:51.350Z,14.21
2022-09-26T01:38:03.043Z,14.22
2022-09-26T01:39:20.361Z,14.21
2022-09-26T01:40:31.391Z,14.20
2022-09-26T01:41:45.176Z,14.20
2022-09-26T01:43:01.244Z,14.21
2022-09-26T01:44:15.896Z,14.20
2022-09-26T01:45:20.637Z,14.19
2022-09-26T01:46:33.991Z,14.17
2022-09-26T01:47:42.186Z,14.18
2022-09-26T01:48:48.470Z,14.17
2022-09-26T01:49:58.621Z,14.18
2022-09-26T01:51:07.560Z,14.17
2022-09-26T01:52:19.385Z,14.18
2022-09-26T01:53:26.188Z,14.19
2022-09-26T01:54:34.891Z,14.18
2022-09-26T01:55:40.219Z,14.17
2022-09-26T01:56:43.310Z,14.17
2022-09-26T01:57:53.039Z,14.18
2022-09-26T01:59:00.036Z,14.17
2022-09-26T02:00:06.725Z,14.17
2022-09-26T02:01:13.909Z,14.17
2022-09-26T02:02:23.322Z,14.19
2022-09-26T02:03:28.360Z,14.18
2022-09-26T02:04:36.784Z,14.19
2022-09-26T02:05:43.910Z,14.20
2022-09-26T02:06:51.257Z,14.19
2022-09-26T02:07:58.573Z,14.21
2022-09-26T02:09:09.147Z,14.21
2022-09-26T02:10:17.238Z,14.21
2022-09-26T02:11:20.743Z,14.22
2022-09-26T02:12:27.520Z,14.21
2022-09-26T02:13:33.408Z,14.21
2022-09-26T02:14:37.633Z,14.22
2022-09-26T02:15:41.348Z,14.21
2022-09-26T02:16:47.494Z,14.21
2022-09-26T02:17:56.954Z,14.21
2022-09-26T02:19:04.200Z,14.21
2022-09-26T02:20:11.536Z,14.21
2022-09-26T02:21:17.519Z,14.20
2022-09-26T02:22:20.467Z,14.21
2022-09-26T02:23:22.189Z,14.23
2022-09-26T02:24:24.740Z,14.24
2022-09-26T02:25:28.386Z,14.23
2022-09-26T02:26:30.946Z,14.23
2022-09-26T02:27:32.541Z,14.23
2022-09-26T02:28:35.618Z,14.23
2022-09-26T02:29:39.277Z,14.23
2022-09-26T02:30:44.234Z,14.25
2022-09-26T02:31:51.906Z,14.24
2022-09-26T02:32:54.921Z,14.27
2022-09-26T02:33:57.945Z,14.28
2022-09-26T02:35:00.332Z,14.27
2022-09-26T02:36:04.062Z,14.28
2022-09-26T02:37:05.904Z,14.29
2022-09-26T02:38:08.584Z,14.30
2022-09-26T02:39:10.556Z,14.31
2022-09-26T02:40:13.147Z,14.31
2022-09-26T02:41:22.418Z,14.30
2022-09-26T02:42:31.344Z,14.29
2022-09-26T02:43:49.145Z,14.28
2022-09-26T02:45:21.529Z,14.27
2022-09-26T02:46:51.228Z,14.25
2022-09-26T02:48:26.692Z,14.25
2022-09-26T02:49:40.488Z,14.23
2022-09-26T02:50:57.021Z,14.24
2022-09-26T02:52:15.959Z,14.24
2022-09-26T02:53:34.380Z,14.23
2022-09-26T02:54:44.442Z,14.22
2022-09-26T02:55:52.941Z,14.22
2022-09-26T02:57:16.057Z,14.23
2022-09-26T02:58:22.821Z,14.23
2022-09-26T02:59:34.950Z,14.23
2022-09-26T03:00:50.607Z,14.24
2022-09-26T03:01:56.808Z,14.23
2022-09-26T03:03:07.831Z,14.24
2022-09-26T03:04:18.624Z,14.24
2022-09-26T03:05:23.876Z,14.25
2022-09-26T03:06:32.670Z,14.25
2022-09-26T03:07:40.741Z,14.26
2022-09-26T03:08:45.658Z,14.26
2022-09-26T03:09:50.016Z,14.26
2022-09-26T03:10:53.156Z,14.26
2022-09-26T03:11:58.222Z,14.26
2022-09-26T03:13:06.396Z,14.24
2022-09-26T03:14:10.164Z,14.24
2022-09-26T03:15:13.862Z,14.24
2022-09-26T03:16:17.481Z,14.25
2022-09-26T03:17:19.716Z,14.24
2022-09-26T03:18:28.151Z,14.24
2022-09-26T03:19:35.321Z,14.24
2022-09-26T03:20:38.032Z,14.23
2022-09-26T03:21:39.814Z,14.24
2022-09-26T03:22:43.240Z,14.24
2022-09-26T03:23:45.394Z,14.24
2022-09-26T03:24:48.210Z,14.23
2022-09-26T03:25:59.295Z,14.25
2022-09-26T03:27:05.029Z,14.23
2022-09-26T03:28:06.765Z,14.22
2022-09-26T03:29:09.763Z,14.21
2022-09-26T03:30:12.224Z,14.22
2022-09-26T03:31:14.884Z,14.21
2022-09-26T03:32:16.612Z,14.21
2022-09-26T03:33:19.153Z,14.22
2022-09-26T03:34:22.004Z,14.22
2022-09-26T03:35:26.076Z,14.21
2022-09-26T03:36:29.692Z,14.22
2022-09-26T03:37:34.077Z,14.22
2022-09-26T03:38:35.661Z,14.21
2022-09-26T03:39:38.228Z,14.21
2022-09-26T03:40:42.122Z,14.22
2022-09-26T03:41:44.702Z,14.21
2022-09-26T03:42:47.938Z,14.22
2022-09-26T03:43:50.660Z,14.21
2022-09-26T03:44:53.110Z,14.23
2022-09-26T03:45:55.915Z,14.22
2022-09-26T03:46:57.532Z,14.22
2022-09-26T03:48:00.063Z,14.22
2022-09-26T03:49:01.633Z,14.21
2022-09-26T03:50:05.036Z,14.20
2022-09-26T03:51:09.733Z,14.21
2022-09-26T03:52:13.576Z,14.21
2022-09-26T03:53:15.087Z,14.20
2022-09-26T03:54:17.717Z,14.20
2022-09-26T03:55:19.285Z,14.19
2022-09-26T03:56:22.920Z,14.21
2022-09-26T03:57:24.488Z,14.21
2022-09-26T03:58:27.081Z,14.20
2022-09-26T03:59:28.628Z,14.19
2022-09-26T04:00:31.330Z,14.20
2022-09-26T04:01:35.859Z,14.18
2022-09-26T04:02:38.997Z,14.17
2022-09-26T04:03:47.805Z,14.15
2022-09-26T04:04:56.604Z,14.15
2022-09-26T04:05:58.160Z,14.15
2022-09-26T04:07:02.032Z,14.14
2022-09-26T04:08:03.928Z,14.13
2022-09-26T04:09:06.565Z,14.12
2022-09-26T04:10:09.641Z,14.12
2022-09-26T04:11:14.778Z,14.12
2022-09-26T04:12:16.410Z,14.13
2022-09-26T04:13:46.678Z,14.12
2022-09-26T04:14:43.337Z,14.13
2022-09-26T04:15:44.872Z,14.13
2022-09-26T04:16:48.096Z,14.14
2022-09-26T04:17:49.701Z,14.14
2022-09-26T04:18:56.500Z,14.15
2022-09-26T04:19:58.162Z,14.15
2022-09-26T04:21:02.030Z,14.15
2022-09-26T04:22:08.167Z,14.16
2022-09-26T04:23:10.685Z,14.17
2022-09-26T04:24:14.472Z,14.16
2022-09-26T04:25:17.286Z,14.17
2022-09-26T04:26:23.693Z,14.18
2022-09-26T04:27:28.691Z,14.17
2022-09-26T04:28:30.876Z,14.16
2022-09-26T04:29:33.391Z,14.15
2022-09-26T04:30:37.170Z,14.14
2022-09-26T04:31:40.240Z,14.13
2022-09-26T04:32:41.804Z,14.13
2022-09-26T04:33:45.071Z,14.13
2022-09-26T04:34:46.614Z,14.12
2022-09-26T04:35:49.135Z,14.12
2022-09-26T04:36:51.540Z,14.12
2022-09-26T04:37:55.441Z,14.11
2022-09-26T04:39:00.476Z,14.10
2022-09-26T04:40:03.043Z,14.10
2022-09-26T04:41:06.095Z,14.10
2022-09-26T04:42:08.711Z,14.09
2022-09-26T04:43:11.255Z,14.09
2022-09-26T04:44:15.067Z,14.08
2022-09-26T04:45:16.850Z,14.07
2022-09-26T04:46:25.724Z,14.07
2022-09-26T04:47:29.895Z,14.06
2022-09-26T04:48:32.398Z,14.06
2022-09-26T04:49:33.925Z,14.04
2022-09-26T04:50:36.447Z,14.05
2022-09-26T04:51:37.985Z,14.04
2022-09-26T04:52:41.395Z,14.04
2022-09-26T04:53:44.670Z,14.03
2022-09-26T04:54:47.181Z,14.02
2022-09-26T04:55:49.409Z,14.02
2022-09-26T04:56:52.042Z,14.01
2022-09-26T04:57:53.555Z,14.00
2022-09-26T04:58:57.803Z,13.99
2022-09-26T04:59:59.424Z,13.99
2022-09-26T05:01:03.547Z,13.98
2022-09-26T05:02:06.383Z,13.98
2022-09-26T05:03:10.005Z,13.98
2022-09-26T05:04:13.372Z,13.98
2022-09-26T05:05:15.243Z,13.96
2022-09-26T05:06:19.381Z,13.95
2022-09-26T05:07:21.072Z,13.94
2022-09-26T05:08:33.670Z,13.93
2022-09-26T05:09:37.533Z,13.93
2022-09-26T05:10:39.066Z,13.93
2022-09-26T05:11:41.550Z,13.94
2022-09-26T05:12:44.176Z,13.93
2022-09-26T05:13:52.448Z,13.92
2022-09-26T05:14:56.760Z,13.92
2022-09-26T05:16:02.107Z,13.91
2022-09-26T05:17:04.483Z,13.91
2022-09-26T05:18:12.205Z,13.90
2022-09-26T05:19:14.335Z,13.90
2022-09-26T05:20:28.943Z,13.91
2022-09-26T05:21:31.486Z,13.90
2022-09-26T05:22:34.387Z,13.90
2022-09-26T05:23:55.725Z,13.91
2022-09-26T05:25:17.192Z,13.90
2022-09-26T05:26:23.361Z,13.92
2022-09-26T05:27:27.502Z,13.92
2022-09-26T05:28:29.192Z,13.92
2022-09-26T05:29:31.716Z,13.92
2022-09-26T05:30:34.804Z,13.91
2022-09-26T05:31:38.321Z,13.91
2022-09-26T05:32:40.537Z,13.92
2022-09-26T05:33:44.414Z,13.92
2022-09-26T05:34:47.131Z,13.92
2022-09-26T05:35:50.742Z,13.92
2022-09-26T05:36:52.423Z,13.91
2022-09-26T05:37:59.501Z,13.91
2022-09-26T05:39:01.644Z,13.91
2022-09-26T05:40:24.153Z,13.91
2022-09-26T05:41:29.417Z,13.91
2022-09-26T05:42:30.972Z,13.92
2022-09-26T05:43:34.861Z,13.90
2022-09-26T05:44:36.578Z,13.90
2022-09-26T05:45:39.221Z,13.88
2022-09-26T05:46:40.814Z,13.90
2022-09-26T05:47:43.371Z,13.90
2022-09-26T05:48:44.989Z,13.92
2022-09-26T05:49:47.497Z,13.92
2022-09-26T05:50:49.082Z,13.94
2022-09-26T05:51:53.141Z,13.94
2022-09-26T05:52:56.965Z,13.95
2022-09-26T05:53:59.719Z,13.96
2022-09-26T05:55:01.283Z,13.97
2022-09-26T05:56:06.102Z,13.98
2022-09-26T05:57:07.831Z,13.99
2022-09-26T05:58:10.839Z,14.01
2022-09-26T05:59:12.537Z,14.02
2022-09-26T06:00:15.337Z,14.03
2022-09-26T06:01:18.252Z,14.03
2022-09-26T06:02:21.233Z,14.05
2022-09-26T06:03:22.917Z,14.06
2022-09-26T06:04:25.461Z,14.05
2022-09-26T06:05:27.512Z,14.09
2022-09-26T06:06:30.698Z,14.10
2022-09-26T06:07:32.736Z,14.13
2022-09-26T06:08:36.891Z,14.13
2022-09-26T06:09:38.512Z,14.14
2022-09-26T06:10:41.173Z,14.16
2022-09-26T06:11:44.073Z,14.17
2022-09-26T06:12:50.853Z,14.18
2022-09-26T06:13:55.575Z,14.20
2022-09-26T06:14:57.862Z,14.21
2022-09-26T06:16:05.490Z,14.24
2022-09-26T06:17:07.098Z,14.25
2022-09-26T06:18:09.714Z,14.25
2022-09-26T06:19:12.250Z,14.25
2022-09-26T06:20:13.957Z,14.26
2022-09-26T06:21:18.246Z,14.26
2022-09-26T06:22:19.849Z,14.29
2022-09-26T06:23:22.355Z,14.29
2022-09-26T06:24:23.905Z,14.31
2022-09-26T06:25:26.839Z,14.33
2022-09-26T06:26:28.841Z,14.35
2022-09-26T06:27:38.452Z,14.36
2022-09-26T06:28:40.969Z,14.40
2022-09-26T06:29:42.586Z,14.42
2022-09-26T06:30:45.487Z,14.44
2022-09-26T06:31:48.091Z,14.46
2022-09-26T06:32:52.347Z,14.48
2022-09-26T06:33:55.110Z,14.48
2022-09-26T06:34:56.745Z,14.49
2022-09-26T06:36:03.570Z,14.50
2022-09-26T06:37:05.132Z,14.51
2022-09-26T06:38:08.570Z,14.51
2022-09-26T06:39:10.298Z,14.52
2022-09-26T06:40:12.950Z,14.52
2022-09-26T06:41:16.330Z,14.53
2022-09-26T06:42:18.861Z,14.54
2022-09-26T06:43:22.430Z,14.55
2022-09-26T06:44:24.947Z,14.56
2022-09-26T06:45:27.430Z,14.58
2022-09-26T06:46:31.507Z,14.58
2022-09-26T06:47:33.613Z,14.60
2022-09-26T06:48:36.109Z,14.60
2022-09-26T06:49:38.418Z,14.63
2022-09-26T06:50:40.920Z,14.64
2022-09-26T06:51:42.648Z,14.65
2022-09-26T06:52:45.881Z,14.65
2022-09-26T06:53:47.469Z,14.66
2022-09-26T06:54:50.045Z,14.67
2022-09-26T06:55:51.871Z,14.68
2022-09-26T06:56:54.458Z,14.69
2022-09-26T06:57:58.354Z,14.69
2022-09-26T06:59:02.375Z,14.69
2022-09-26T07:00:04.397Z,14.69
2022-09-26T07:01:07.807Z,14.67
2022-09-26T07:02:09.866Z,14.68
2022-09-26T07:03:13.413Z,14.69
2022-09-26T07:04:15.965Z,14.70
2022-09-26T07:05:18.486Z,14.71
2022-09-26T07:06:21.261Z,14.71
2022-09-26T07:07:23.318Z,14.71
2022-09-26T07:08:43.698Z,14.70
2022-09-26T07:09:57.169Z,14.70
2022-09-26T07:11:28.227Z,14.70
2022-09-26T07:12:28.292Z,14.70
2022-09-26T07:13:29.817Z,14.71
2022-09-26T07:14:33.683Z,14.71
2022-09-26T07:15:36.150Z,14.73
2022-09-26T07:16:38.807Z,14.74
2022-09-26T07:17:41.004Z,14.74
2022-09-26T07:18:43.866Z,14.75
2022-09-26T07:19:52.025Z,14.76
2022-09-26T07:20:56.927Z,14.76
2022-09-26T07:21:58.936Z,14.76
2022-09-26T07:23:08.525Z,14.76
2022-09-26T07:24:13.960Z,14.77
2022-09-26T07:25:16.732Z,14.78
2022-09-26T07:26:19.474Z,14.78
2022-09-26T07:27:21.982Z,14.78
2022-09-26T07:28:24.125Z,14.77
2022-09-26T07:29:26.851Z,14.76
2022-09-26T07:30:29.776Z,14.75
2022-09-26T07:31:32.363Z,14.75
2022-09-26T07:32:33.944Z,14.74
2022-09-26T07:33:36.433Z,14.74
2022-09-26T07:34:38.756Z,14.74
2022-09-26T07:35:44.319Z,14.73
2022-09-26T07:36:47.661Z,14.72
2022-09-26T07:37:52.078Z,14.72
2022-09-26T07:38:54.548Z,14.69
2022-09-26T07:40:00.653Z,14.68
2022-09-26T07:41:04.279Z,14.69
2022-09-26T07:42:07.156Z,14.69
2022-09-26T07:43:19.553Z,14.69
2022-09-26T07:46:03.940Z,14.68
2022-09-26T07:47:24.734Z,14.66
2022-09-26T07:48:48.835Z,14.65
2022-09-26T07:50:09.116Z,14.65
2022-09-26T07:51:12.003Z,14.63
2022-09-26T07:52:14.831Z,14.62
2022-09-26T07:53:16.360Z,14.60
2022-09-26T07:54:19.972Z,14.60
2022-09-26T07:55:26.881Z,14.58
2022-09-26T07:56:29.095Z,14.58
2022-09-26T07:57:34.107Z,14.58
2022-09-26T07:58:38.350Z,14.58
2022-09-26T07:59:40.962Z,14.57
2022-09-26T08:00:43.581Z,14.56
2022-09-26T08:01:46.916Z,14.57
2022-09-26T08:02:50.687Z,14.57
2022-09-26T08:03:55.446Z,14.56
2022-09-26T08:05:01.039Z,14.55
2022-09-26T08:06:03.253Z,14.52
2022-09-26T08:07:06.043Z,14.51
2022-09-26T08:08:07.567Z,14.51
2022-09-26T08:09:10.145Z,14.51
2022-09-26T08:10:19.103Z,14.51
2022-09-26T08:11:22.311Z,14.49
2022-09-26T08:12:24.305Z,14.49
2022-09-26T08:13:28.281Z,14.47
2022-09-26T08:14:30.926Z,14.44
2022-09-26T08:15:32.430Z,14.43
2022-09-26T08:16:39.390Z,14.41
2022-09-26T08:17:44.353Z,14.40
2022-09-26T08:18:46.242Z,14.40
2022-09-26T08:19:48.955Z,14.37
2022-09-26T08:20:50.475Z,14.37
2022-09-26T08:21:52.944Z,14.36
2022-09-26T08:22:54.833Z,14.35
2022-09-26T08:23:57.294Z,14.35
2022-09-26T08:25:00.085Z,14.35
2022-09-26T08:26:04.537Z,14.37
2022-09-26T08:27:06.422Z,14.36
2022-09-26T08:28:12.831Z,14.35
2022-09-26T08:29:14.684Z,14.34
2022-09-26T08:30:17.734Z,14.34
2022-09-26T08:31:19.303Z,14.33
2022-09-26T08:32:22.562Z,14.33
2022-09-26T08:33:25.724Z,14.33
2022-09-26T08:34:28.202Z,14.32
2022-09-26T08:35:35.541Z,14.32
2022-09-26T08:36:38.216Z,14.32
2022-09-26T08:37:40.185Z,14.31
2022-09-26T08:38:42.788Z,14.32
2022-09-26T08:39:44.383Z,14.33
2022-09-26T08:40:57.096Z,14.35
2022-09-26T08:42:23.807Z,14.35
2022-09-26T08:43:40.589Z,14.36
2022-09-26T08:45:02.308Z,14.36
2022-09-26T08:46:33.012Z,14.36
2022-09-26T08:47:44.170Z,14.36
2022-09-26T08:49:06.531Z,14.35
2022-09-26T08:50:18.789Z,14.35
2022-09-26T08:51:30.034Z,14.34
2022-09-26T08:52:39.829Z,14.34
2022-09-26T08:53:48.973Z,14.35
2022-09-26T08:54:57.474Z,14.36
2022-09-26T08:56:03.696Z,14.37
2022-09-26T08:57:14.916Z,14.37
2022-09-26T08:58:20.163Z,14.38
2022-09-26T08:59:27.642Z,14.40
2022-09-26T09:00:33.935Z,14.41
2022-09-26T09:01:41.479Z,14.40
2022-09-26T09:02:49.882Z,14.41
2022-09-26T09:03:59.110Z,14.41
2022-09-26T09:05:05.869Z,14.42
2022-09-26T09:06:12.595Z,14.43
2022-09-26T09:07:21.772Z,14.42
2022-09-26T09:08:31.361Z,14.44
2022-09-26T09:09:33.171Z,14.45
2022-09-26T09:10:45.988Z,14.43
2022-09-26T09:12:02.385Z,14.44
2022-09-26T09:13:17.635Z,14.46
2022-09-26T09:14:36.900Z,14.49
2022-09-26T09:15:53.559Z,14.50
2022-09-26T09:17:09.889Z,14.51
2022-09-26T09:18:22.269Z,14.53
2022-09-26T09:19:34.941Z,14.53
2022-09-26T09:20:48.790Z,14.55
2022-09-26T09:22:10.722Z,14.57
2022-09-26T09:23:29.472Z,14.60
2022-09-26T09:24:50.601Z,14.60
2022-09-26T09:27:53.506Z,14.61
2022-09-26T09:29:25.267Z,14.62
2022-09-26T09:30:39.996Z,14.60
2022-09-26T09:31:44.453Z,14.60
2022-09-26T09:32:52.862Z,14.60
2022-09-26T09:33:59.588Z,14.59
2022-09-26T09:35:04.205Z,14.59
2022-09-26T09:36:09.850Z,14.60
2022-09-26T09:37:15.948Z,14.63
2022-09-26T09:38:22.101Z,14.68
2022-09-26T09:39:29.495Z,14.71
2022-09-26T09:40:38.383Z,14.75
2022-09-26T09:41:46.475Z,14.78
2022-09-26T09:42:53.996Z,14.81
2022-09-26T09:43:58.812Z,14.82
2022-09-26T09:45:05.716Z,14.83
2022-09-26T09:46:17.592Z,14.83
2022-09-26T09:47:20.643Z,14.84
2022-09-26T09:48:27.843Z,14.85
2022-09-26T09:49:31.584Z,14.85
2022-09-26T09:50:44.699Z,14.87
2022-09-26T09:51:59.593Z,14.86
2022-09-26T09:53:14.433Z,14.87
2022-09-26T09:54:31.480Z,14.88
2022-09-26T09:55:44.081Z,14.90
2022-09-26T09:56:55.217Z,14.93
2022-09-26T09:58:12.431Z,14.94
2022-09-26T09:59:36.110Z,14.94
2022-09-26T10:00:45.586Z,14.96
2022-09-26T10:02:00.779Z,14.97
2022-09-26T10:03:20.964Z,14.99
2022-09-26T10:04:36.277Z,15.02
2022-09-26T10:05:43.043Z,15.03
2022-09-26T10:06:47.361Z,15.06
2022-09-26T10:07:57.881Z,15.07
2022-09-26T10:09:35.944Z,15.08
2022-09-26T10:10:38.779Z,15.11
2022-09-26T10:11:43.110Z,15.16
2022-09-26T10:12:44.989Z,15.20
2022-09-26T10:13:52.501Z,15.24
2022-09-26T10:14:57.748Z,15.29
2022-09-26T10:16:02.499Z,15.32
2022-09-26T10:17:23.510Z,15.36
2022-09-26T10:18:27.012Z,15.39
2022-09-26T10:19:37.006Z,15.42
2022-09-26T10:20:48.138Z,15.45
2022-09-26T10:21:53.676Z,15.48
2022-09-26T10:22:55.496Z,15.49
2022-09-26T10:23:58.772Z,15.50
2022-09-26T10:25:04.423Z,15.50
2022-09-26T10:26:10.317Z,15.49
2022-09-26T10:27:18.285Z,15.48
2022-09-26T10:28:31.446Z,15.47
2022-09-26T10:29:35.027Z,15.48
2022-09-26T10:30:48.581Z,15.46
2022-09-26T10:31:57.255Z,15.47
2022-09-26T10:33:03.401Z,15.49
2022-09-26T10:34:07.046Z,15.49
2022-09-26T10:35:20.090Z,15.49
2022-09-26T10:36:30.933Z,15.49
2022-09-26T10:37:36.073Z,15.50
2022-09-26T10:39:05.768Z,15.51
2022-09-26T10:40:41.588Z,15.55
2022-09-26T10:41:46.757Z,15.57
2022-09-26T10:42:48.346Z,15.58
2022-09-26T10:43:54.321Z,15.61
2022-09-26T10:44:57.927Z,15.61
2022-09-26T10:46:05.665Z,15.64
2022-09-26T10:47:14.145Z,15.67
2022-09-26T10:48:21.823Z,15.72
2022-09-26T10:49:31.166Z,15.76
2022-09-26T10:50:33.163Z,15.81
2022-09-26T10:51:42.621Z,15.85
2022-09-26T10:52:49.575Z,15.90
2022-09-26T10:53:55.127Z,15.96
2022-09-26T10:55:04.070Z,16.03
2022-09-26T10:56:11.795Z,16.07
2022-09-26T10:57:24.550Z,16.10
2022-09-26T10:58:30.349Z,16.11
2022-09-26T10:59:34.537Z,16.13
2022-09-26T11:00:41.007Z,16.17
2022-09-26T11:01:46.590Z,16.19
2022-09-26T11:02:52.657Z,16.23
2022-09-26T11:03:59.792Z,16.28
2022-09-26T11:05:24.060Z,16.30
2022-09-26T11:06:30.191Z,16.32
2022-09-26T11:07:38.176Z,16.35
2022-09-26T11:08:41.041Z,16.36
2022-09-26T11:09:43.047Z,16.38
2022-09-26T11:10:48.818Z,16.40
2022-09-26T11:11:52.250Z,16.40
2022-09-26T11:13:00.424Z,16.39
2022-09-26T11:14:07.330Z,16.38
2022-09-26T11:15:10.950Z,16.35
2022-09-26T11:16:15.442Z,16.34
2022-09-26T11:17:17.584Z,16.32
2022-09-26T11:18:26.784Z,16.30
2022-09-26T11:19:38.983Z,16.30
2022-09-26T11:20:50.351Z,16.29
2022-09-26T11:21:58.494Z,16.25
2022-09-26T11:23:12.161Z,16.24
2022-09-26T11:24:22.005Z,16.22
2022-09-26T11:25:30.178Z,16.23
2022-09-26T11:26:37.269Z,16.22
2022-09-26T11:27:46.656Z,16.23
2022-09-26T11:28:53.511Z,16.23
2022-09-26T11:30:02.479Z,16.24
2022-09-26T11:31:14.537Z,16.24
2022-09-26T11:32:23.659Z,16.26
2022-09-26T11:33:26.419Z,16.28
2022-09-26T11:34:31.363Z,16.31
2022-09-26T11:35:46.946Z,16.32
2022-09-26T11:37:09.484Z,16.36
2022-09-26T11:38:28.870Z,16.42
2022-09-26T11:39:47.335Z,16.49
2022-09-26T11:41:07.118Z,16.55
2022-09-26T11:42:25.800Z,16.59
2022-09-26T11:43:44.891Z,16.63
2022-09-26T11:44:56.604Z,16.65
2022-09-26T11:46:18.399Z,16.67
2022-09-26T11:48:15.179Z,16.69
2022-09-26T11:49:39.882Z,16.70
2022-09-26T11:50:56.987Z,16.73
2022-09-26T11:52:14.427Z,16.75
2022-09-26T11:53:33.345Z,16.77
2022-09-26T11:54:51.219Z,16.78
2022-09-26T11:56:09.706Z,16.78
2022-09-26T11:57:29.221Z,16.77
2022-09-26T11:58:40.134Z,16.74
2022-09-26T12:00:01.389Z,16.74
2022-09-26T12:01:20.952Z,16.72
2022-09-26T12:02:42.506Z,16.72
2022-09-26T12:04:07.565Z,16.71
2022-09-26T12:05:27.388Z,16.72
2022-09-26T12:06:34.980Z,16.72
2022-09-26T12:07:44.229Z,16.73
2022-09-26T12:09:00.669Z,16.72
2022-09-26T12:10:20.467Z,16.69
2022-09-26T12:11:32.702Z,16.66
2022-09-26T12:12:42.586Z,16.64
2022-09-26T12:13:54.158Z,16.63
2022-09-26T12:15:09.656Z,16.62
2022-09-26T12:16:19.627Z,16.60
2022-09-26T12:17:36.073Z,16.60
2022-09-26T12:18:53.337Z,16.59
2022-09-26T12:20:01.688Z,16.56
2022-09-26T12:21:18.089Z,16.54
2022-09-26T12:22:29.486Z,16.52
2022-09-26T12:23:38.637Z,16.51
2022-09-26T12:24:54.055Z,16.49
2022-09-26T12:26:09.402Z,16.47
2022-09-26T12:27:20.173Z,16.43
2022-09-26T12:28:54.905Z,16.40
2022-09-26T12:30:06.785Z,16.37
2022-09-26T12:31:19.821Z,16.34
2022-09-26T12:32:39.750Z,16.32
2022-09-26T12:34:02.940Z,16.26
2022-09-26T12:35:27.950Z,16.19
2022-09-26T12:36:47.678Z,16.15
2022-09-26T12:38:05.089Z,16.11
2022-09-26T12:39:22.036Z,16.10
2022-09-26T12:40:34.079Z,16.04
2022-09-26T12:41:53.323Z,16.02
2022-09-26T12:43:14.604Z,15.98
2022-09-26T12:44:31.219Z,15.97
2022-09-26T12:45:57.018Z,15.94
2022-09-26T12:47:11.095Z,15.95
2022-09-26T12:48:29.615Z,15.96
2022-09-26T12:49:48.032Z,15.96
2022-09-26T12:51:01.970Z,15.95
2022-09-26T12:52:14.496Z,15.98
2022-09-26T12:53:39.665Z,16.00
2022-09-26T12:54:52.501Z,16.00
2022-09-26T12:56:06.734Z,16.01
2022-09-26T12:57:24.243Z,16.00
2022-09-26T12:58:39.422Z,16.01
2022-09-26T13:00:02.375Z,16.01
2022-09-26T13:01:35.910Z,16.00
2022-09-26T13:03:11.271Z,15.99
2022-09-26T13:04:44.851Z,16.00
2022-09-26T13:06:23.010Z,16.00
2022-09-26T13:07:36.684Z,16.00
2022-09-26T13:08:53.240Z,15.98
2022-09-26T13:10:15.199Z,15.96
2022-09-26T13:11:32.745Z,15.95
2022-09-26T13:12:53.410Z,15.94
2022-09-26T13:14:27.143Z,15.94
2022-09-26T13:15:35.219Z,15.92
2022-09-26T13:16:50.558Z,15.94
2022-09-26T13:17:58.231Z,15.94
2022-09-26T13:19:05.232Z,15.96
2022-09-26T13:20:17.527Z,15.98
2022-09-26T13:21:22.185Z,16.00
2022-09-26T13:22:34.938Z,16.03
2022-09-26T13:23:43.508Z,16.05
2022-09-26T13:24:52.222Z,16.06
2022-09-26T13:25:59.593Z,16.07
2022-09-26T13:27:12.389Z,16.07
2022-09-26T13:28:20.712Z,16.05
2022-09-26T13:29:26.472Z,16.04
2022-09-26T13:30:35.567Z,16.02
2022-09-26T13:31:44.534Z,15.98
2022-09-26T13:32:54.877Z,15.99
2022-09-26T13:34:03.899Z,15.98
2022-09-26T13:35:18.229Z,15.97
2022-09-26T13:36:22.738Z,15.95
2022-09-26T13:37:38.639Z,15.94
2022-09-26T13:38:53.088Z,15.93
2022-09-26T13:40:02.549Z,15.91
2022-09-26T13:41:29.028Z,15.89
2022-09-26T13:42:39.289Z,15.89
2022-09-26T13:43:56.967Z,15.88
2022-09-26T13:45:10.687Z,15.88
2022-09-26T13:46:26.844Z,15.87
2022-09-26T13:47:41.836Z,15.86
2022-09-26T13:48:51.754Z,15.86
2022-09-26T13:50:03.042Z,15.85
2022-09-26T13:51:18.017Z,15.84
2022-09-26T13:52:41.483Z,15.85
2022-09-26T13:53:53.464Z,15.85
2022-09-26T13:55:00.319Z,15.84
2022-09-26T13:56:41.939Z,15.83
2022-09-26T13:57:52.426Z,15.81
2022-09-26T13:59:03.737Z,15.77
2022-09-26T14:00:40.831Z,15.74
2022-09-26T14:02:18.170Z,15.72
2022-09-26T14:03:41.736Z,15.70
2022-09-26T14:04:45.312Z,15.69
2022-09-26T14:05:49.815Z,15.67
2022-09-26T14:07:32.985Z,15.64
2022-09-26T14:08:54.841Z,15.63
2022-09-26T14:10:10.208Z,15.60
2022-09-26T14:11:19.529Z,15.57
2022-09-26T14:12:34.018Z,15.53
2022-09-26T14:13:37.601Z,15.50
2022-09-26T14:14:49.018Z,15.47
2022-09-26T14:16:27.121Z,15.44
2022-09-26T14:18:22.941Z,15.40
2022-09-26T14:19:36.704Z,15.36
2022-09-26T14:20:53.748Z,15.34
2022-09-26T14:22:00.221Z,15.35
2022-09-26T14:23:03.074Z,15.34
2022-09-26T14:24:33.769Z,15.33
2022-09-26T14:25:56.484Z,15.32
2022-09-26T14:27:05.735Z,15.31
2022-09-26T14:28:19.752Z,15.29
2022-09-26T14:29:35.944Z,15.27
2022-09-26T14:30:37.666Z,15.26
2022-09-26T14:31:41.659Z,15.26
2022-09-26T14:32:46.925Z,15.25
2022-09-26T14:33:49.944Z,15.26
2022-09-26T14:34:57.338Z,15.26
2022-09-26T14:36:32.974Z,15.24
2022-09-26T14:37:42.028Z,15.22
2022-09-26T14:38:46.658Z,15.19
2022-09-26T14:39:53.752Z,15.17
2022-09-26T14:40:57.807Z,15.13
2022-09-26T14:42:09.260Z,15.09
2022-09-26T14:43:15.004Z,15.08
2022-09-26T14:44:20.526Z,15.06